AN139 VGHS-ZGGG
Flight info
| Callsign | AN139 |
|---|---|
| Flight time | 3h 0m |
| Altitude | 37000 |
| Route | NUPUR2 NUPUR W14 DAKID DCT CTG A599 LINSO/K0856S1130 A599 GULOT W146 XSJ W148 LXI A599 GYA GYA1 |
| Aircraft | B738/M-SDE2E3FGHIRWXY/LB1 |
Departure
| Time | 2026-05-08 15:39 |
|---|---|
| Airport | Hazrat Shahjalal International Airport (VGHS) |
Arrival
| Time | 2026-05-08 18:39 |
|---|---|
| Airport | Guangzhou Baiyun International Airport (ZGGG) |
| Time | Latitude | Longitude | Altitude | Speed | Heading |
|---|---|---|---|---|---|
| 2026-05-08 15:15 | 23.84578 | 90.40560 | 35 ft | 0 kts | 54° |
| 2026-05-08 15:24 | 23.84574 | 90.40554 | 35 ft | 2 kts | 54° |
| 2026-05-08 15:24 | 23.84564 | 90.40539 | 35 ft | 2 kts | 53° |
| 2026-05-08 15:24 | 23.84554 | 90.40525 | 34 ft | 2 kts | 53° |
| 2026-05-08 15:24 | 23.84544 | 90.40510 | 33 ft | 2 kts | 50° |
| 2026-05-08 15:25 | 23.84533 | 90.40497 | 33 ft | 2 kts | 41° |
| 2026-05-08 15:25 | 23.84518 | 90.40491 | 33 ft | 2 kts | 332° |
| 2026-05-08 15:25 | 23.84513 | 90.40494 | 32 ft | 0 kts | 323° |
| 2026-05-08 15:29 | 23.84514 | 90.40493 | 32 ft | 0 kts | 323° |
| 2026-05-08 15:29 | 23.84518 | 90.40490 | 33 ft | 1 kts | 323° |
| 2026-05-08 15:29 | 23.84529 | 90.40481 | 34 ft | 3 kts | 322° |
| 2026-05-08 15:30 | 23.84546 | 90.40466 | 35 ft | 4 kts | 321° |
| 2026-05-08 15:30 | 23.84569 | 90.40447 | 35 ft | 5 kts | 323° |
| 2026-05-08 15:30 | 23.84598 | 90.40423 | 33 ft | 6 kts | 325° |
| 2026-05-08 15:30 | 23.84633 | 90.40396 | 34 ft | 7 kts | 323° |
| 2026-05-08 15:31 | 23.84673 | 90.40362 | 34 ft | 8 kts | 319° |
| 2026-05-08 15:31 | 23.84681 | 90.40306 | 35 ft | 8 kts | 251° |
| 2026-05-08 15:31 | 23.84645 | 90.40251 | 35 ft | 9 kts | 218° |
| 2026-05-08 15:31 | 23.84582 | 90.40254 | 35 ft | 10 kts | 149° |
| 2026-05-08 15:32 | 23.84523 | 90.40299 | 35 ft | 11 kts | 143° |
| 2026-05-08 15:32 | 23.84460 | 90.40349 | 35 ft | 12 kts | 145° |
| 2026-05-08 15:32 | 23.84397 | 90.40400 | 35 ft | 11 kts | 143° |
| 2026-05-08 15:32 | 23.84332 | 90.40452 | 34 ft | 12 kts | 144° |
| 2026-05-08 15:33 | 23.84262 | 90.40510 | 35 ft | 13 kts | 142° |
| 2026-05-08 15:33 | 23.84187 | 90.40567 | 35 ft | 13 kts | 145° |
| 2026-05-08 15:33 | 23.84136 | 90.40608 | 35 ft | 14 kts | 142° |
| 2026-05-08 15:33 | 23.84054 | 90.40675 | 35 ft | 15 kts | 142° |
| 2026-05-08 15:34 | 23.83944 | 90.40761 | 34 ft | 14 kts | 143° |
| 2026-05-08 15:34 | 23.83892 | 90.40802 | 35 ft | 14 kts | 143° |
| 2026-05-08 15:34 | 23.83813 | 90.40866 | 35 ft | 15 kts | 144° |
| 2026-05-08 15:34 | 23.83728 | 90.40931 | 35 ft | 15 kts | 149° |
| 2026-05-08 15:35 | 23.83637 | 90.40998 | 35 ft | 16 kts | 140° |
| 2026-05-08 15:35 | 23.83551 | 90.41071 | 35 ft | 15 kts | 143° |
| 2026-05-08 15:35 | 23.83469 | 90.41119 | 35 ft | 2 kts | 193° |
| 2026-05-08 15:35 | 23.83452 | 90.41107 | 35 ft | 4 kts | 216° |
| 2026-05-08 15:36 | 23.83432 | 90.41082 | 34 ft | 5 kts | 231° |
| 2026-05-08 15:36 | 23.83407 | 90.41047 | 35 ft | 7 kts | 232° |
| 2026-05-08 15:36 | 23.83376 | 90.41005 | 35 ft | 8 kts | 232° |
| 2026-05-08 15:36 | 23.83342 | 90.40953 | 35 ft | 9 kts | 236° |
| 2026-05-08 15:37 | 23.83302 | 90.40893 | 35 ft | 10 kts | 232° |
| 2026-05-08 15:37 | 23.83262 | 90.40836 | 34 ft | 9 kts | 233° |
| 2026-05-08 15:37 | 23.83225 | 90.40778 | 40 ft | 10 kts | 236° |
| 2026-05-08 15:37 | 23.83214 | 90.40707 | 36 ft | 10 kts | 282° |
| 2026-05-08 15:38 | 23.83253 | 90.40641 | 36 ft | 11 kts | 317° |
| 2026-05-08 15:38 | 23.83274 | 90.40621 | 36 ft | 1 kts | 323° |
| 2026-05-08 15:38 | 23.83276 | 90.40620 | 36 ft | 0 kts | 323° |
| 2026-05-08 15:38 | 23.83283 | 90.40615 | 36 ft | 12 kts | 323° |
| 2026-05-08 15:39 | 23.83615 | 90.40349 | 37 ft | 104 kts | 323° |
| 2026-05-08 15:39 | 23.84414 | 90.39714 | 52 ft | 176 kts | 325° |
| 2026-05-08 15:39 | 23.85372 | 90.38841 | 961 ft | 178 kts | 321° |
| 2026-05-08 15:39 | 23.86434 | 90.37961 | 1651 ft | 207 kts | 319° |
| 2026-05-08 15:40 | 23.87147 | 90.36697 | 2022 ft | 190 kts | 280° |
| 2026-05-08 15:40 | 23.87250 | 90.35350 | 2415 ft | 169 kts | 272° |
| 2026-05-08 15:40 | 23.86928 | 90.34184 | 2778 ft | 166 kts | 222° |
| 2026-05-08 15:40 | 23.85820 | 90.33668 | 3151 ft | 192 kts | 182° |
| 2026-05-08 15:41 | 23.84470 | 90.34073 | 3497 ft | 214 kts | 145° |
| 2026-05-08 15:41 | 23.83324 | 90.35165 | 3959 ft | 223 kts | 138° |
| 2026-05-08 15:41 | 23.82155 | 90.36351 | 4439 ft | 235 kts | 138° |
| 2026-05-08 15:41 | 23.80917 | 90.37603 | 4934 ft | 250 kts | 139° |
| 2026-05-08 15:42 | 23.79603 | 90.38922 | 5497 ft | 262 kts | 139° |
| 2026-05-08 15:42 | 23.78231 | 90.40289 | 6129 ft | 272 kts | 139° |
| 2026-05-08 15:42 | 23.76832 | 90.41677 | 6769 ft | 279 kts | 139° |
| 2026-05-08 15:42 | 23.75374 | 90.43118 | 7437 ft | 285 kts | 139° |
| 2026-05-08 15:43 | 23.73885 | 90.44586 | 8139 ft | 290 kts | 139° |
| 2026-05-08 15:43 | 23.72364 | 90.46082 | 8738 ft | 301 kts | 139° |
| 2026-05-08 15:43 | 23.70765 | 90.47654 | 9200 ft | 316 kts | 139° |
| 2026-05-08 15:43 | 23.69095 | 90.49294 | 9684 ft | 330 kts | 139° |
| 2026-05-08 15:44 | 23.67307 | 90.50929 | 10112 ft | 342 kts | 146° |
| 2026-05-08 15:44 | 23.65252 | 90.52336 | 10554 ft | 353 kts | 152° |
| 2026-05-08 15:44 | 23.63076 | 90.53655 | 10995 ft | 364 kts | 153° |
| 2026-05-08 15:44 | 23.60821 | 90.54996 | 11428 ft | 373 kts | 153° |
| 2026-05-08 15:45 | 23.58547 | 90.56369 | 11853 ft | 372 kts | 152° |
| 2026-05-08 15:45 | 23.56314 | 90.57742 | 12281 ft | 373 kts | 152° |
| 2026-05-08 15:45 | 23.54057 | 90.59147 | 12725 ft | 374 kts | 152° |
| 2026-05-08 15:45 | 23.51793 | 90.60566 | 13065 ft | 378 kts | 152° |
| 2026-05-08 15:46 | 23.49489 | 90.62011 | 13263 ft | 385 kts | 152° |
| 2026-05-08 15:46 | 23.47179 | 90.63461 | 13570 ft | 380 kts | 152° |
| 2026-05-08 15:46 | 23.44888 | 90.64899 | 13874 ft | 380 kts | 152° |
| 2026-05-08 15:46 | 23.42589 | 90.66342 | 14171 ft | 383 kts | 152° |
| 2026-05-08 15:47 | 23.40276 | 90.67793 | 14468 ft | 384 kts | 152° |
| 2026-05-08 15:47 | 23.37950 | 90.69252 | 14774 ft | 385 kts | 152° |
| 2026-05-08 15:47 | 23.35624 | 90.70709 | 15083 ft | 386 kts | 153° |
| 2026-05-08 15:47 | 23.33319 | 90.72154 | 15383 ft | 387 kts | 153° |
| 2026-05-08 15:48 | 23.28649 | 90.75077 | 16004 ft | 388 kts | 153° |
| 2026-05-08 15:48 | 23.26307 | 90.76542 | 16312 ft | 389 kts | 153° |
| 2026-05-08 15:48 | 23.23955 | 90.78013 | 16641 ft | 390 kts | 153° |
| 2026-05-08 15:49 | 23.21596 | 90.79487 | 16966 ft | 391 kts | 153° |
| 2026-05-08 15:49 | 23.19215 | 90.80974 | 17306 ft | 399 kts | 153° |
| 2026-05-08 15:49 | 23.16782 | 90.82492 | 17649 ft | 406 kts | 153° |
| 2026-05-08 15:49 | 23.14304 | 90.84039 | 17994 ft | 413 kts | 153° |
| 2026-05-08 15:50 | 23.11797 | 90.85604 | 18308 ft | 419 kts | 153° |
| 2026-05-08 15:50 | 23.09289 | 90.87174 | 18600 ft | 424 kts | 153° |
| 2026-05-08 15:50 | 23.06736 | 90.88819 | 18897 ft | 428 kts | 152° |
| 2026-05-08 15:50 | 23.04173 | 90.90498 | 19193 ft | 432 kts | 152° |
| 2026-05-08 15:51 | 23.01594 | 90.92196 | 19490 ft | 435 kts | 152° |
| 2026-05-08 15:51 | 22.98998 | 90.93904 | 19793 ft | 437 kts | 153° |
| 2026-05-08 15:51 | 22.96394 | 90.95612 | 20092 ft | 438 kts | 153° |
| 2026-05-08 15:51 | 22.93780 | 90.97323 | 20394 ft | 439 kts | 153° |
| 2026-05-08 15:52 | 22.91157 | 90.99036 | 20705 ft | 440 kts | 153° |
| 2026-05-08 15:52 | 22.88526 | 91.00751 | 21014 ft | 441 kts | 154° |
| 2026-05-08 15:52 | 22.85882 | 91.02473 | 21325 ft | 442 kts | 154° |
| 2026-05-08 15:52 | 22.83239 | 91.04193 | 21648 ft | 443 kts | 154° |
| 2026-05-08 15:53 | 22.80622 | 91.05896 | 21969 ft | 444 kts | 154° |
| 2026-05-08 15:53 | 22.77967 | 91.07622 | 22293 ft | 446 kts | 154° |
| 2026-05-08 15:53 | 22.75297 | 91.09357 | 22618 ft | 447 kts | 154° |
| 2026-05-08 15:53 | 22.72628 | 91.11092 | 22954 ft | 448 kts | 155° |
| 2026-05-08 15:54 | 22.69945 | 91.12834 | 23287 ft | 449 kts | 155° |
| 2026-05-08 15:54 | 22.67267 | 91.14572 | 23596 ft | 450 kts | 155° |
| 2026-05-08 15:54 | 22.64580 | 91.16317 | 23868 ft | 450 kts | 155° |
| 2026-05-08 15:54 | 22.61885 | 91.18064 | 24151 ft | 451 kts | 155° |
| 2026-05-08 15:55 | 22.59195 | 91.19809 | 24428 ft | 451 kts | 155° |
| 2026-05-08 15:55 | 22.53800 | 91.23304 | 24999 ft | 452 kts | 155° |
| 2026-05-08 15:55 | 22.51099 | 91.25052 | 25288 ft | 452 kts | 155° |
| 2026-05-08 15:56 | 22.48395 | 91.26802 | 25581 ft | 452 kts | 155° |
| 2026-05-08 15:56 | 22.45693 | 91.28549 | 25877 ft | 453 kts | 155° |
| 2026-05-08 15:56 | 22.42990 | 91.30296 | 26172 ft | 453 kts | 155° |
| 2026-05-08 15:56 | 22.40286 | 91.32043 | 26475 ft | 453 kts | 155° |
| 2026-05-08 15:57 | 22.37578 | 91.33792 | 26781 ft | 453 kts | 155° |
| 2026-05-08 15:57 | 22.34914 | 91.35526 | 27083 ft | 454 kts | 153° |
| 2026-05-08 15:57 | 22.32523 | 91.37824 | 27365 ft | 471 kts | 134° |
| 2026-05-08 15:57 | 22.30820 | 91.40888 | 27700 ft | 482 kts | 117° |
| 2026-05-08 15:58 | 22.29979 | 91.44429 | 28025 ft | 491 kts | 101° |
| 2026-05-08 15:58 | 22.29569 | 91.48092 | 28361 ft | 492 kts | 99° |
| 2026-05-08 15:58 | 22.29225 | 91.51777 | 28680 ft | 492 kts | 99° |
| 2026-05-08 15:58 | 22.28881 | 91.55450 | 29002 ft | 492 kts | 99° |
| 2026-05-08 15:59 | 22.28510 | 91.59123 | 29331 ft | 491 kts | 100° |
| 2026-05-08 15:59 | 22.28110 | 91.62800 | 29666 ft | 491 kts | 100° |
| 2026-05-08 15:59 | 22.27693 | 91.66460 | 29989 ft | 490 kts | 101° |
| 2026-05-08 15:59 | 22.27269 | 91.70111 | 30274 ft | 490 kts | 101° |
| 2026-05-08 16:00 | 22.26845 | 91.73755 | 30561 ft | 489 kts | 101° |
| 2026-05-08 16:00 | 22.26430 | 91.77350 | 30849 ft | 489 kts | 101° |
| 2026-05-08 16:00 | 22.26035 | 91.81013 | 31142 ft | 490 kts | 97° |
| 2026-05-08 16:00 | 22.25986 | 91.84690 | 31432 ft | 493 kts | 88° |
| 2026-05-08 16:01 | 22.26413 | 91.88368 | 31744 ft | 494 kts | 83° |
| 2026-05-08 16:01 | 22.26957 | 91.92037 | 32047 ft | 493 kts | 83° |
| 2026-05-08 16:01 | 22.27518 | 91.95685 | 32357 ft | 493 kts | 83° |
| 2026-05-08 16:01 | 22.28067 | 91.99340 | 32670 ft | 492 kts | 83° |
| 2026-05-08 16:02 | 22.28595 | 92.02990 | 32988 ft | 491 kts | 83° |
| 2026-05-08 16:02 | 22.29097 | 92.06585 | 33299 ft | 490 kts | 84° |
| 2026-05-08 16:02 | 22.29595 | 92.10220 | 33629 ft | 489 kts | 84° |
| 2026-05-08 16:02 | 22.30088 | 92.13846 | 33943 ft | 488 kts | 84° |
| 2026-05-08 16:03 | 22.30579 | 92.17471 | 34229 ft | 487 kts | 84° |
| 2026-05-08 16:03 | 22.31070 | 92.21082 | 34524 ft | 485 kts | 84° |
| 2026-05-08 16:03 | 22.31561 | 92.24689 | 34810 ft | 484 kts | 84° |
| 2026-05-08 16:03 | 22.32051 | 92.28283 | 35109 ft | 482 kts | 84° |
| 2026-05-08 16:04 | 22.32542 | 92.31863 | 35400 ft | 481 kts | 84° |
| 2026-05-08 16:04 | 22.33033 | 92.35420 | 35690 ft | 479 kts | 84° |
| 2026-05-08 16:04 | 22.33522 | 92.38974 | 35910 ft | 479 kts | 84° |
| 2026-05-08 16:04 | 22.34015 | 92.42567 | 35884 ft | 485 kts | 84° |
| 2026-05-08 16:05 | 22.35003 | 92.49812 | 35921 ft | 495 kts | 84° |
| 2026-05-08 16:05 | 22.36017 | 92.57267 | 35913 ft | 507 kts | 84° |
| 2026-05-08 16:06 | 22.37050 | 92.64885 | 35918 ft | 516 kts | 84° |
| 2026-05-08 16:06 | 22.38093 | 92.72606 | 35901 ft | 521 kts | 84° |
| 2026-05-08 16:07 | 22.39143 | 92.80364 | 35908 ft | 520 kts | 84° |
| 2026-05-08 16:07 | 22.40183 | 92.88042 | 35929 ft | 511 kts | 84° |
| 2026-05-08 16:08 | 22.41199 | 92.95594 | 35941 ft | 510 kts | 84° |
| 2026-05-08 16:08 | 22.42214 | 93.03189 | 35955 ft | 510 kts | 84° |
| 2026-05-08 16:09 | 22.43055 | 93.09505 | 35963 ft | 511 kts | 84° |
| 2026-05-08 16:09 | 22.44234 | 93.18384 | 35980 ft | 510 kts | 84° |
| 2026-05-08 16:10 | 22.45240 | 93.25985 | 35995 ft | 511 kts | 84° |
| 2026-05-08 16:10 | 22.46244 | 93.33607 | 36018 ft | 512 kts | 84° |
| 2026-05-08 16:11 | 22.47240 | 93.41193 | 36021 ft | 513 kts | 84° |
| 2026-05-08 16:11 | 22.48242 | 93.48848 | 36026 ft | 515 kts | 84° |
| 2026-05-08 16:12 | 22.49242 | 93.56522 | 36017 ft | 516 kts | 84° |
| 2026-05-08 16:12 | 22.50241 | 93.64213 | 36030 ft | 516 kts | 84° |
| 2026-05-08 16:13 | 22.51237 | 93.71908 | 35998 ft | 517 kts | 84° |
| 2026-05-08 16:13 | 22.52232 | 93.79622 | 35981 ft | 517 kts | 84° |
| 2026-05-08 16:14 | 22.53215 | 93.87274 | 35952 ft | 515 kts | 84° |
| 2026-05-08 16:14 | 22.54195 | 93.94946 | 35964 ft | 515 kts | 84° |
| 2026-05-08 16:15 | 22.55172 | 94.02631 | 35931 ft | 515 kts | 84° |
| 2026-05-08 16:15 | 22.56148 | 94.10308 | 35933 ft | 513 kts | 84° |
| 2026-05-08 16:16 | 22.57109 | 94.17907 | 35935 ft | 512 kts | 84° |
| 2026-05-08 16:16 | 22.58072 | 94.25550 | 35927 ft | 512 kts | 84° |
| 2026-05-08 16:17 | 22.58870 | 94.31904 | 35914 ft | 513 kts | 84° |
| 2026-05-08 16:17 | 22.59981 | 94.40804 | 35917 ft | 513 kts | 84° |
| 2026-05-08 16:18 | 22.60933 | 94.48456 | 35923 ft | 512 kts | 84° |
| 2026-05-08 16:18 | 22.61879 | 94.56089 | 35922 ft | 512 kts | 84° |
| 2026-05-08 16:19 | 22.62822 | 94.63727 | 35904 ft | 512 kts | 84° |
| 2026-05-08 16:19 | 22.63762 | 94.71367 | 35904 ft | 512 kts | 84° |
| 2026-05-08 16:20 | 22.64692 | 94.78960 | 35909 ft | 512 kts | 84° |
| 2026-05-08 16:20 | 22.65625 | 94.86611 | 35905 ft | 513 kts | 84° |
| 2026-05-08 16:21 | 22.66558 | 94.94290 | 35904 ft | 513 kts | 84° |
| 2026-05-08 16:21 | 22.67487 | 95.01965 | 35898 ft | 514 kts | 84° |
| 2026-05-08 16:22 | 22.68257 | 95.08350 | 35897 ft | 514 kts | 84° |
| 2026-05-08 16:22 | 22.69329 | 95.17275 | 35895 ft | 514 kts | 84° |
| 2026-05-08 16:23 | 22.70249 | 95.24972 | 35898 ft | 514 kts | 84° |
| 2026-05-08 16:23 | 22.71011 | 95.31367 | 35894 ft | 514 kts | 84° |
| 2026-05-08 16:24 | 22.71922 | 95.39052 | 35890 ft | 514 kts | 84° |
| 2026-05-08 16:24 | 22.72831 | 95.46744 | 35892 ft | 514 kts | 84° |
| 2026-05-08 16:25 | 22.73736 | 95.54433 | 35888 ft | 514 kts | 84° |
| 2026-05-08 16:25 | 22.74636 | 95.62113 | 35888 ft | 513 kts | 84° |
| 2026-05-08 16:26 | 22.75526 | 95.69746 | 35888 ft | 513 kts | 84° |
| 2026-05-08 16:26 | 22.76417 | 95.77421 | 35891 ft | 513 kts | 84° |
| 2026-05-08 16:27 | 22.77305 | 95.85096 | 35889 ft | 513 kts | 84° |
| 2026-05-08 16:27 | 22.78189 | 95.92769 | 35898 ft | 512 kts | 84° |
| 2026-05-08 16:28 | 22.79068 | 96.00434 | 35905 ft | 512 kts | 84° |
| 2026-05-08 16:28 | 22.79943 | 96.08093 | 35915 ft | 512 kts | 84° |
| 2026-05-08 16:29 | 22.80814 | 96.15754 | 35922 ft | 512 kts | 85° |
| 2026-05-08 16:29 | 22.81682 | 96.23417 | 35939 ft | 512 kts | 85° |
| 2026-05-08 16:30 | 22.82545 | 96.31077 | 35939 ft | 513 kts | 84° |
| 2026-05-08 16:30 | 22.83406 | 96.38753 | 35954 ft | 512 kts | 84° |
| 2026-05-08 16:31 | 22.84259 | 96.46385 | 35954 ft | 512 kts | 84° |
| 2026-05-08 16:31 | 22.85112 | 96.54061 | 35948 ft | 512 kts | 85° |
| 2026-05-08 16:32 | 22.85961 | 96.61715 | 35958 ft | 511 kts | 85° |
| 2026-05-08 16:32 | 22.86805 | 96.69370 | 35980 ft | 511 kts | 84° |
| 2026-05-08 16:33 | 22.87645 | 96.77026 | 35975 ft | 511 kts | 85° |
| 2026-05-08 16:33 | 22.88481 | 96.84682 | 35985 ft | 511 kts | 85° |
| 2026-05-08 16:34 | 22.89315 | 96.92348 | 35980 ft | 511 kts | 85° |
| 2026-05-08 16:34 | 22.90139 | 96.99953 | 35990 ft | 511 kts | 85° |
| 2026-05-08 16:35 | 22.90964 | 97.07606 | 35998 ft | 511 kts | 84° |
| 2026-05-08 16:35 | 22.91785 | 97.15259 | 35992 ft | 511 kts | 85° |
| 2026-05-08 16:36 | 22.92604 | 97.22925 | 35986 ft | 511 kts | 84° |
| 2026-05-08 16:36 | 22.93419 | 97.30595 | 35985 ft | 512 kts | 85° |
| 2026-05-08 16:37 | 22.94230 | 97.38254 | 35983 ft | 512 kts | 85° |
| 2026-05-08 16:37 | 22.95039 | 97.45947 | 35980 ft | 512 kts | 85° |
| 2026-05-08 16:38 | 22.95838 | 97.53579 | 35992 ft | 512 kts | 85° |
| 2026-05-08 16:38 | 22.96640 | 97.61271 | 35965 ft | 512 kts | 85° |
| 2026-05-08 16:39 | 22.97438 | 97.68967 | 35981 ft | 513 kts | 85° |
| 2026-05-08 16:39 | 22.98487 | 97.76628 | 35964 ft | 515 kts | 75° |
| 2026-05-08 16:40 | 23.00876 | 97.83954 | 35985 ft | 516 kts | 68° |
| 2026-05-08 16:40 | 23.03462 | 97.91182 | 35993 ft | 517 kts | 68° |
| 2026-05-08 16:41 | 23.06022 | 97.98489 | 35996 ft | 518 kts | 69° |
| 2026-05-08 16:42 | 23.09792 | 98.09524 | 35991 ft | 520 kts | 69° |
| 2026-05-08 16:42 | 23.12293 | 98.16891 | 36001 ft | 520 kts | 69° |
| 2026-05-08 16:43 | 23.14795 | 98.24260 | 35996 ft | 520 kts | 69° |
| 2026-05-08 16:43 | 23.17295 | 98.31632 | 35997 ft | 519 kts | 69° |
| 2026-05-08 16:44 | 23.19767 | 98.38932 | 36006 ft | 517 kts | 69° |
| 2026-05-08 16:44 | 23.22247 | 98.46267 | 36015 ft | 517 kts | 69° |
| 2026-05-08 16:44 | 23.23485 | 98.49936 | 36145 ft | 515 kts | 69° |
| 2026-05-08 16:45 | 23.24722 | 98.53602 | 36278 ft | 515 kts | 69° |
| 2026-05-08 16:45 | 23.25957 | 98.57266 | 36400 ft | 515 kts | 69° |
| 2026-05-08 16:45 | 23.27190 | 98.60931 | 36579 ft | 516 kts | 69° |
| 2026-05-08 16:45 | 23.28425 | 98.64602 | 36721 ft | 517 kts | 69° |
| 2026-05-08 16:46 | 23.29663 | 98.68284 | 36866 ft | 518 kts | 69° |
| 2026-05-08 16:46 | 23.32122 | 98.75615 | 37017 ft | 521 kts | 69° |
| 2026-05-08 16:47 | 23.34621 | 98.83074 | 37017 ft | 527 kts | 69° |
| 2026-05-08 16:47 | 23.37138 | 98.90603 | 37001 ft | 531 kts | 69° |
| 2026-05-08 16:48 | 23.39591 | 98.98195 | 37010 ft | 532 kts | 71° |
| 2026-05-08 16:48 | 23.41950 | 99.05826 | 37008 ft | 531 kts | 71° |
| 2026-05-08 16:49 | 23.44294 | 99.13406 | 37007 ft | 525 kts | 71° |
| 2026-05-08 16:49 | 23.46634 | 99.20928 | 37018 ft | 523 kts | 71° |
| 2026-05-08 16:50 | 23.48957 | 99.28394 | 37025 ft | 522 kts | 71° |
| 2026-05-08 16:50 | 23.51280 | 99.35882 | 37037 ft | 520 kts | 71° |
| 2026-05-08 16:51 | 23.53916 | 99.43224 | 37027 ft | 520 kts | 59° |
| 2026-05-08 16:51 | 23.57505 | 99.50078 | 37037 ft | 521 kts | 57° |
| 2026-05-08 16:52 | 23.61193 | 99.56915 | 37042 ft | 523 kts | 58° |
| 2026-05-08 16:52 | 23.64818 | 99.63767 | 37041 ft | 526 kts | 58° |
| 2026-05-08 16:53 | 23.70260 | 99.74229 | 37031 ft | 528 kts | 58° |
| 2026-05-08 16:53 | 23.73877 | 99.81205 | 37043 ft | 527 kts | 58° |
| 2026-05-08 16:54 | 23.77475 | 99.88145 | 37055 ft | 521 kts | 58° |
| 2026-05-08 16:54 | 23.81036 | 99.95015 | 37058 ft | 519 kts | 58° |
| 2026-05-08 16:55 | 23.84585 | 100.01870 | 37061 ft | 520 kts | 58° |
| 2026-05-08 16:55 | 23.88177 | 100.08818 | 37043 ft | 529 kts | 58° |
| 2026-05-08 16:56 | 23.91789 | 100.15822 | 37054 ft | 529 kts | 58° |
| 2026-05-08 16:56 | 23.95398 | 100.22830 | 37055 ft | 529 kts | 58° |
| 2026-05-08 16:57 | 23.98987 | 100.29808 | 37049 ft | 528 kts | 58° |
| 2026-05-08 16:57 | 24.02584 | 100.36811 | 37066 ft | 527 kts | 58° |
| 2026-05-08 16:58 | 24.06176 | 100.43818 | 37032 ft | 527 kts | 58° |
| 2026-05-08 16:58 | 24.09737 | 100.50774 | 37075 ft | 526 kts | 58° |
| 2026-05-08 16:59 | 24.13311 | 100.57773 | 37048 ft | 528 kts | 58° |
| 2026-05-08 16:59 | 24.16842 | 100.64791 | 37089 ft | 526 kts | 59° |
| 2026-05-08 17:00 | 24.20365 | 100.71843 | 37084 ft | 528 kts | 59° |
| 2026-05-08 17:00 | 24.23900 | 100.78921 | 37089 ft | 529 kts | 59° |
| 2026-05-08 17:01 | 24.27418 | 100.85968 | 37096 ft | 530 kts | 59° |
| 2026-05-08 17:01 | 24.30958 | 100.93064 | 37100 ft | 531 kts | 59° |
| 2026-05-08 17:02 | 24.34496 | 101.00168 | 37108 ft | 531 kts | 59° |
| 2026-05-08 17:02 | 24.38046 | 101.07307 | 37119 ft | 532 kts | 59° |
| 2026-05-08 17:03 | 24.41579 | 101.14427 | 37118 ft | 531 kts | 59° |
| 2026-05-08 17:03 | 24.45110 | 101.21549 | 37142 ft | 532 kts | 59° |
| 2026-05-08 17:04 | 24.48648 | 101.28694 | 37130 ft | 532 kts | 59° |
| 2026-05-08 17:04 | 24.52171 | 101.35829 | 37133 ft | 530 kts | 59° |
| 2026-05-08 17:05 | 24.55649 | 101.42883 | 37166 ft | 528 kts | 59° |
| 2026-05-08 17:05 | 24.59139 | 101.49965 | 37143 ft | 526 kts | 59° |
| 2026-05-08 17:06 | 24.61941 | 101.57391 | 37163 ft | 528 kts | 75° |
| 2026-05-08 17:06 | 24.62917 | 101.65364 | 37183 ft | 527 kts | 88° |
| 2026-05-08 17:07 | 24.63213 | 101.73441 | 37184 ft | 532 kts | 89° |
| 2026-05-08 17:07 | 24.63525 | 101.81607 | 37177 ft | 536 kts | 88° |
| 2026-05-08 17:08 | 24.63895 | 101.89772 | 37180 ft | 538 kts | 88° |
| 2026-05-08 17:08 | 24.64286 | 101.97994 | 37201 ft | 539 kts | 88° |
| 2026-05-08 17:09 | 24.64669 | 102.06178 | 37197 ft | 533 kts | 88° |
| 2026-05-08 17:09 | 24.64979 | 102.12942 | 37211 ft | 531 kts | 88° |
| 2026-05-08 17:10 | 24.65345 | 102.21057 | 37215 ft | 530 kts | 88° |
| 2026-05-08 17:10 | 24.65706 | 102.29169 | 37241 ft | 533 kts | 88° |
| 2026-05-08 17:11 | 24.66066 | 102.37349 | 37237 ft | 536 kts | 88° |
| 2026-05-08 17:11 | 24.66423 | 102.45555 | 37248 ft | 538 kts | 88° |
| 2026-05-08 17:12 | 24.66771 | 102.53713 | 37260 ft | 537 kts | 88° |
| 2026-05-08 17:12 | 24.67178 | 102.61928 | 37263 ft | 537 kts | 86° |
| 2026-05-08 17:13 | 24.67710 | 102.70120 | 37271 ft | 536 kts | 86° |
| 2026-05-08 17:13 | 24.67916 | 102.78298 | 37263 ft | 534 kts | 96° |
| 2026-05-08 17:14 | 24.66397 | 102.86219 | 37259 ft | 527 kts | 114° |
| 2026-05-08 17:14 | 24.63777 | 102.93720 | 37270 ft | 525 kts | 115° |
| 2026-05-08 17:15 | 24.61163 | 103.01222 | 37265 ft | 525 kts | 114° |
| 2026-05-08 17:15 | 24.58643 | 103.08697 | 37263 ft | 525 kts | 113° |
| 2026-05-08 17:16 | 24.56165 | 103.16241 | 37263 ft | 526 kts | 109° |
| 2026-05-08 17:16 | 24.55017 | 103.24188 | 37263 ft | 530 kts | 92° |
| 2026-05-08 17:17 | 24.54952 | 103.32273 | 37255 ft | 530 kts | 90° |
| 2026-05-08 17:17 | 24.54894 | 103.40362 | 37261 ft | 529 kts | 91° |
| 2026-05-08 17:18 | 24.54752 | 103.48455 | 37267 ft | 529 kts | 92° |
| 2026-05-08 17:18 | 24.54581 | 103.56473 | 37277 ft | 528 kts | 92° |
| 2026-05-08 17:19 | 24.54409 | 103.64549 | 37260 ft | 528 kts | 92° |
| 2026-05-08 17:19 | 24.54228 | 103.72634 | 37253 ft | 528 kts | 94° |
| 2026-05-08 17:20 | 24.53063 | 103.80504 | 37274 ft | 525 kts | 105° |
| 2026-05-08 17:20 | 24.51325 | 103.88293 | 37243 ft | 525 kts | 106° |
| 2026-05-08 17:21 | 24.49586 | 103.96083 | 37253 ft | 526 kts | 105° |
| 2026-05-08 17:21 | 24.47894 | 104.03905 | 37242 ft | 526 kts | 105° |
| 2026-05-08 17:22 | 24.46219 | 104.11741 | 37236 ft | 527 kts | 105° |
| 2026-05-08 17:22 | 24.44554 | 104.19522 | 37199 ft | 527 kts | 105° |
| 2026-05-08 17:23 | 24.42867 | 104.27372 | 37185 ft | 527 kts | 105° |
| 2026-05-08 17:23 | 24.41176 | 104.35195 | 37181 ft | 527 kts | 105° |
| 2026-05-08 17:24 | 24.39484 | 104.43009 | 37124 ft | 526 kts | 105° |
| 2026-05-08 17:24 | 24.37794 | 104.50802 | 37157 ft | 524 kts | 105° |
| 2026-05-08 17:25 | 24.36114 | 104.58525 | 37164 ft | 524 kts | 105° |
| 2026-05-08 17:25 | 24.34417 | 104.66303 | 37157 ft | 524 kts | 105° |
| 2026-05-08 17:26 | 24.32712 | 104.74097 | 37141 ft | 525 kts | 105° |
| 2026-05-08 17:26 | 24.31006 | 104.81880 | 37126 ft | 525 kts | 105° |
| 2026-05-08 17:27 | 24.29305 | 104.89618 | 37122 ft | 525 kts | 105° |
| 2026-05-08 17:27 | 24.27586 | 104.97413 | 37125 ft | 526 kts | 105° |
| 2026-05-08 17:28 | 24.25863 | 105.05205 | 37113 ft | 526 kts | 105° |
| 2026-05-08 17:28 | 24.24134 | 105.13002 | 37101 ft | 526 kts | 105° |
| 2026-05-08 17:29 | 24.22408 | 105.20777 | 37122 ft | 525 kts | 105° |
| 2026-05-08 17:29 | 24.20600 | 105.28534 | 37103 ft | 525 kts | 106° |
| 2026-05-08 17:30 | 24.18704 | 105.36264 | 37115 ft | 525 kts | 107° |
| 2026-05-08 17:30 | 24.16823 | 105.43946 | 37113 ft | 525 kts | 106° |
| 2026-05-08 17:31 | 24.14942 | 105.51683 | 37126 ft | 527 kts | 106° |
| 2026-05-08 17:31 | 24.13053 | 105.59447 | 37086 ft | 529 kts | 106° |
| 2026-05-08 17:32 | 24.11157 | 105.67212 | 37095 ft | 527 kts | 106° |
| 2026-05-08 17:32 | 24.09344 | 105.74978 | 37119 ft | 527 kts | 104° |
| 2026-05-08 17:33 | 24.07821 | 105.82834 | 37115 ft | 527 kts | 102° |
| 2026-05-08 17:33 | 24.06330 | 105.90702 | 37096 ft | 526 kts | 103° |
| 2026-05-08 17:34 | 24.04804 | 105.98468 | 37115 ft | 524 kts | 103° |
| 2026-05-08 17:34 | 24.03241 | 106.06255 | 37092 ft | 523 kts | 103° |
| 2026-05-08 17:35 | 24.01674 | 106.14028 | 37087 ft | 523 kts | 103° |
| 2026-05-08 17:35 | 24.00106 | 106.21799 | 37090 ft | 523 kts | 103° |
| 2026-05-08 17:36 | 23.98536 | 106.29569 | 37095 ft | 522 kts | 103° |
| 2026-05-08 17:36 | 23.96964 | 106.37322 | 37087 ft | 522 kts | 103° |
| 2026-05-08 17:37 | 23.95395 | 106.45042 | 37087 ft | 523 kts | 103° |
| 2026-05-08 17:37 | 23.93814 | 106.52801 | 37078 ft | 523 kts | 103° |
| 2026-05-08 17:38 | 23.92276 | 106.60568 | 37083 ft | 523 kts | 99° |
| 2026-05-08 17:38 | 23.91627 | 106.68495 | 37083 ft | 524 kts | 93° |
| 2026-05-08 17:39 | 23.91191 | 106.76441 | 37080 ft | 524 kts | 93° |
| 2026-05-08 17:39 | 23.90718 | 106.84397 | 37076 ft | 524 kts | 94° |
| 2026-05-08 17:40 | 23.90198 | 106.92343 | 37092 ft | 524 kts | 94° |
| 2026-05-08 17:40 | 23.89663 | 107.00236 | 37083 ft | 525 kts | 94° |
| 2026-05-08 17:41 | 23.89120 | 107.08196 | 37080 ft | 525 kts | 94° |
| 2026-05-08 17:41 | 23.88574 | 107.16167 | 37075 ft | 525 kts | 94° |
| 2026-05-08 17:42 | 23.88028 | 107.24117 | 37078 ft | 525 kts | 94° |
| 2026-05-08 17:42 | 23.87477 | 107.32073 | 37088 ft | 525 kts | 94° |
| 2026-05-08 17:43 | 23.86926 | 107.39978 | 37075 ft | 525 kts | 94° |
| 2026-05-08 17:43 | 23.86367 | 107.47926 | 37079 ft | 524 kts | 94° |
| 2026-05-08 17:44 | 23.85803 | 107.55877 | 37085 ft | 524 kts | 94° |
| 2026-05-08 17:44 | 23.85236 | 107.63805 | 37091 ft | 523 kts | 94° |
| 2026-05-08 17:45 | 23.84666 | 107.71721 | 37089 ft | 523 kts | 94° |
| 2026-05-08 17:45 | 23.84093 | 107.79634 | 37087 ft | 522 kts | 94° |
| 2026-05-08 17:46 | 23.83535 | 107.87547 | 37086 ft | 522 kts | 93° |
| 2026-05-08 17:46 | 23.83140 | 107.95458 | 37078 ft | 521 kts | 92° |
| 2026-05-08 17:47 | 23.82770 | 108.03275 | 37064 ft | 504 kts | 92° |
| 2026-05-08 17:47 | 23.82449 | 108.09593 | 36914 ft | 500 kts | 92° |
| 2026-05-08 17:48 | 23.82187 | 108.14605 | 36634 ft | 500 kts | 92° |
| 2026-05-08 17:48 | 23.81985 | 108.18409 | 36411 ft | 500 kts | 92° |
| 2026-05-08 17:48 | 23.81777 | 108.22200 | 36197 ft | 501 kts | 93° |
| 2026-05-08 17:48 | 23.81563 | 108.26018 | 35976 ft | 507 kts | 93° |
| 2026-05-08 17:49 | 23.81343 | 108.29895 | 35729 ft | 514 kts | 93° |
| 2026-05-08 17:49 | 23.81119 | 108.33812 | 35482 ft | 518 kts | 93° |
| 2026-05-08 17:49 | 23.80893 | 108.37743 | 35229 ft | 519 kts | 93° |
| 2026-05-08 17:49 | 23.80668 | 108.41676 | 34982 ft | 519 kts | 93° |
| 2026-05-08 17:50 | 23.80441 | 108.45617 | 34727 ft | 520 kts | 93° |
| 2026-05-08 17:50 | 23.80214 | 108.49557 | 34481 ft | 519 kts | 93° |
| 2026-05-08 17:50 | 23.79986 | 108.53486 | 34225 ft | 519 kts | 93° |
| 2026-05-08 17:50 | 23.79757 | 108.57416 | 33971 ft | 518 kts | 93° |
| 2026-05-08 17:51 | 23.79530 | 108.61285 | 33693 ft | 517 kts | 93° |
| 2026-05-08 17:51 | 23.79300 | 108.65202 | 33424 ft | 517 kts | 94° |
| 2026-05-08 17:51 | 23.79070 | 108.69111 | 33137 ft | 516 kts | 94° |
| 2026-05-08 17:51 | 23.78839 | 108.73014 | 32871 ft | 515 kts | 94° |
| 2026-05-08 17:52 | 23.78606 | 108.76915 | 32602 ft | 514 kts | 94° |
| 2026-05-08 17:52 | 23.78373 | 108.80809 | 32335 ft | 513 kts | 94° |
| 2026-05-08 17:52 | 23.77906 | 108.88573 | 31801 ft | 512 kts | 94° |
| 2026-05-08 17:53 | 23.77671 | 108.92460 | 31548 ft | 512 kts | 94° |
| 2026-05-08 17:53 | 23.77434 | 108.96337 | 31297 ft | 512 kts | 94° |
| 2026-05-08 17:53 | 23.77197 | 109.00229 | 31004 ft | 513 kts | 94° |
| 2026-05-08 17:53 | 23.76958 | 109.04115 | 30765 ft | 514 kts | 94° |
| 2026-05-08 17:54 | 23.76717 | 109.08007 | 30510 ft | 514 kts | 94° |
| 2026-05-08 17:54 | 23.76480 | 109.11858 | 30272 ft | 515 kts | 94° |
| 2026-05-08 17:54 | 23.76149 | 109.15757 | 29997 ft | 515 kts | 100° |
| 2026-05-08 17:54 | 23.75460 | 109.19595 | 29713 ft | 515 kts | 103° |
| 2026-05-08 17:55 | 23.74679 | 109.23406 | 29425 ft | 515 kts | 104° |
| 2026-05-08 17:55 | 23.73869 | 109.27216 | 29137 ft | 515 kts | 104° |
| 2026-05-08 17:55 | 23.73057 | 109.31026 | 28862 ft | 515 kts | 104° |
| 2026-05-08 17:55 | 23.72255 | 109.34837 | 28565 ft | 515 kts | 104° |
| 2026-05-08 17:56 | 23.71465 | 109.38651 | 28290 ft | 515 kts | 103° |
| 2026-05-08 17:56 | 23.70685 | 109.42458 | 28020 ft | 515 kts | 103° |
| 2026-05-08 17:56 | 23.70170 | 109.44987 | 27838 ft | 514 kts | 103° |
| 2026-05-08 17:56 | 23.69396 | 109.48798 | 27561 ft | 514 kts | 103° |
| 2026-05-08 17:57 | 23.68623 | 109.52604 | 27299 ft | 514 kts | 103° |
| 2026-05-08 17:57 | 23.67848 | 109.56410 | 27033 ft | 514 kts | 103° |
| 2026-05-08 17:57 | 23.66810 | 109.61498 | 26679 ft | 514 kts | 103° |
| 2026-05-08 17:57 | 23.66294 | 109.64022 | 26509 ft | 514 kts | 103° |
| 2026-05-08 17:58 | 23.65516 | 109.67820 | 26248 ft | 513 kts | 103° |
| 2026-05-08 17:58 | 23.64736 | 109.71622 | 25989 ft | 513 kts | 103° |
| 2026-05-08 17:58 | 23.63954 | 109.75426 | 25737 ft | 513 kts | 103° |
| 2026-05-08 17:58 | 23.63172 | 109.79223 | 25486 ft | 512 kts | 103° |
| 2026-05-08 17:59 | 23.62393 | 109.83009 | 25239 ft | 511 kts | 103° |
| 2026-05-08 17:59 | 23.61624 | 109.86735 | 24992 ft | 509 kts | 103° |
| 2026-05-08 17:59 | 23.60848 | 109.90492 | 24747 ft | 506 kts | 104° |
| 2026-05-08 17:59 | 23.60078 | 109.94215 | 24499 ft | 503 kts | 103° |
| 2026-05-08 18:00 | 23.59310 | 109.97926 | 24258 ft | 500 kts | 103° |
| 2026-05-08 18:00 | 23.57786 | 110.05271 | 23771 ft | 494 kts | 103° |
| 2026-05-08 18:00 | 23.57029 | 110.08912 | 23516 ft | 491 kts | 103° |
| 2026-05-08 18:01 | 23.56275 | 110.12532 | 23237 ft | 489 kts | 103° |
| 2026-05-08 18:01 | 23.55523 | 110.16140 | 22944 ft | 486 kts | 103° |
| 2026-05-08 18:01 | 23.54775 | 110.19726 | 22666 ft | 484 kts | 103° |
| 2026-05-08 18:01 | 23.54030 | 110.23293 | 22388 ft | 482 kts | 103° |
| 2026-05-08 18:02 | 23.53286 | 110.26845 | 22114 ft | 480 kts | 103° |
| 2026-05-08 18:02 | 23.52545 | 110.30380 | 21844 ft | 478 kts | 104° |
| 2026-05-08 18:02 | 23.51806 | 110.33907 | 21573 ft | 475 kts | 104° |
| 2026-05-08 18:02 | 23.51071 | 110.37415 | 21301 ft | 473 kts | 103° |
| 2026-05-08 18:03 | 23.50364 | 110.40864 | 21039 ft | 471 kts | 103° |
| 2026-05-08 18:03 | 23.49663 | 110.44337 | 20777 ft | 468 kts | 103° |
| 2026-05-08 18:03 | 23.48965 | 110.47796 | 20515 ft | 466 kts | 103° |
| 2026-05-08 18:03 | 23.48270 | 110.51233 | 20257 ft | 464 kts | 103° |
| 2026-05-08 18:04 | 23.47573 | 110.54661 | 20000 ft | 461 kts | 103° |
| 2026-05-08 18:04 | 23.46879 | 110.58066 | 19747 ft | 459 kts | 103° |
| 2026-05-08 18:04 | 23.46187 | 110.61448 | 19500 ft | 457 kts | 103° |
| 2026-05-08 18:04 | 23.45496 | 110.64823 | 19244 ft | 455 kts | 104° |
| 2026-05-08 18:05 | 23.44809 | 110.68175 | 18999 ft | 453 kts | 104° |
| 2026-05-08 18:05 | 23.44125 | 110.71511 | 18757 ft | 450 kts | 104° |
| 2026-05-08 18:05 | 23.43436 | 110.74837 | 18521 ft | 448 kts | 104° |
| 2026-05-08 18:05 | 23.42741 | 110.78135 | 18271 ft | 446 kts | 104° |
| 2026-05-08 18:06 | 23.42053 | 110.81378 | 17989 ft | 444 kts | 104° |
| 2026-05-08 18:06 | 23.41358 | 110.84645 | 17711 ft | 442 kts | 104° |
| 2026-05-08 18:06 | 23.40665 | 110.87899 | 17434 ft | 440 kts | 104° |
| 2026-05-08 18:06 | 23.39976 | 110.91135 | 17157 ft | 438 kts | 104° |
| 2026-05-08 18:07 | 23.39288 | 110.94365 | 16889 ft | 436 kts | 104° |
| 2026-05-08 18:07 | 23.38603 | 110.97584 | 16615 ft | 435 kts | 104° |
| 2026-05-08 18:07 | 23.37921 | 111.00783 | 16354 ft | 433 kts | 104° |
| 2026-05-08 18:07 | 23.37240 | 111.03976 | 16090 ft | 432 kts | 104° |
| 2026-05-08 18:08 | 23.36562 | 111.07147 | 15826 ft | 430 kts | 104° |
| 2026-05-08 18:08 | 23.35883 | 111.10322 | 15569 ft | 429 kts | 104° |
| 2026-05-08 18:08 | 23.35218 | 111.13433 | 15312 ft | 427 kts | 104° |
| 2026-05-08 18:08 | 23.34550 | 111.16582 | 15057 ft | 426 kts | 103° |
| 2026-05-08 18:09 | 23.33909 | 111.19725 | 14801 ft | 424 kts | 103° |
| 2026-05-08 18:09 | 23.33283 | 111.22848 | 14545 ft | 422 kts | 103° |
| 2026-05-08 18:09 | 23.32660 | 111.25963 | 14296 ft | 420 kts | 103° |
| 2026-05-08 18:09 | 23.32037 | 111.29066 | 14047 ft | 419 kts | 103° |
| 2026-05-08 18:10 | 23.31413 | 111.32152 | 13797 ft | 417 kts | 103° |
| 2026-05-08 18:10 | 23.30789 | 111.35228 | 13518 ft | 415 kts | 103° |
| 2026-05-08 18:10 | 23.30167 | 111.38285 | 13240 ft | 413 kts | 103° |
| 2026-05-08 18:10 | 23.29548 | 111.41323 | 12965 ft | 411 kts | 103° |
| 2026-05-08 18:11 | 23.28929 | 111.44354 | 12687 ft | 409 kts | 103° |
| 2026-05-08 18:11 | 23.28314 | 111.47364 | 12421 ft | 406 kts | 103° |
| 2026-05-08 18:11 | 23.27712 | 111.50315 | 12151 ft | 404 kts | 103° |
| 2026-05-08 18:11 | 23.27095 | 111.53327 | 11883 ft | 402 kts | 103° |
| 2026-05-08 18:12 | 23.26475 | 111.56280 | 11658 ft | 398 kts | 103° |
| 2026-05-08 18:12 | 23.25865 | 111.59137 | 11489 ft | 387 kts | 104° |
| 2026-05-08 18:12 | 23.25263 | 111.61937 | 11307 ft | 374 kts | 104° |
| 2026-05-08 18:12 | 23.24682 | 111.64642 | 11131 ft | 361 kts | 104° |
| 2026-05-08 18:13 | 23.24119 | 111.67265 | 10959 ft | 350 kts | 104° |
| 2026-05-08 18:13 | 23.23574 | 111.69802 | 10787 ft | 340 kts | 103° |
| 2026-05-08 18:13 | 23.23043 | 111.72275 | 10611 ft | 333 kts | 103° |
| 2026-05-08 18:13 | 23.22519 | 111.74714 | 10457 ft | 329 kts | 103° |
| 2026-05-08 18:14 | 23.22001 | 111.77126 | 10285 ft | 326 kts | 103° |
| 2026-05-08 18:14 | 23.21487 | 111.79520 | 10131 ft | 324 kts | 103° |
| 2026-05-08 18:14 | 23.20975 | 111.81902 | 9984 ft | 325 kts | 103° |
| 2026-05-08 18:14 | 23.20462 | 111.84310 | 9836 ft | 328 kts | 103° |
| 2026-05-08 18:15 | 23.19961 | 111.86728 | 9642 ft | 327 kts | 103° |
| 2026-05-08 18:15 | 23.19465 | 111.89135 | 9480 ft | 325 kts | 103° |
| 2026-05-08 18:15 | 23.18972 | 111.91526 | 9347 ft | 322 kts | 103° |
| 2026-05-08 18:15 | 23.18482 | 111.93897 | 9193 ft | 320 kts | 103° |
| 2026-05-08 18:16 | 23.18000 | 111.96226 | 9035 ft | 312 kts | 103° |
| 2026-05-08 18:16 | 23.17529 | 111.98498 | 8880 ft | 304 kts | 103° |
| 2026-05-08 18:16 | 23.17070 | 112.00708 | 8725 ft | 297 kts | 103° |
| 2026-05-08 18:16 | 23.16618 | 112.02881 | 8571 ft | 294 kts | 103° |
| 2026-05-08 18:17 | 23.16165 | 112.05053 | 8430 ft | 293 kts | 103° |
| 2026-05-08 18:17 | 23.15721 | 112.07184 | 8282 ft | 293 kts | 103° |
| 2026-05-08 18:17 | 23.15271 | 112.09339 | 8135 ft | 292 kts | 103° |
| 2026-05-08 18:17 | 23.14823 | 112.11487 | 7993 ft | 292 kts | 103° |
| 2026-05-08 18:18 | 23.14373 | 112.13640 | 7852 ft | 291 kts | 103° |
| 2026-05-08 18:18 | 23.13922 | 112.15795 | 7706 ft | 290 kts | 103° |
| 2026-05-08 18:18 | 23.13479 | 112.17917 | 7555 ft | 290 kts | 103° |
| 2026-05-08 18:18 | 23.13031 | 112.20053 | 7424 ft | 289 kts | 103° |
| 2026-05-08 18:19 | 23.12585 | 112.22184 | 7284 ft | 289 kts | 103° |
| 2026-05-08 18:19 | 23.12139 | 112.24310 | 7141 ft | 288 kts | 103° |
| 2026-05-08 18:19 | 23.11693 | 112.26434 | 7001 ft | 288 kts | 103° |
| 2026-05-08 18:19 | 23.11250 | 112.28546 | 6862 ft | 287 kts | 103° |
| 2026-05-08 18:20 | 23.10806 | 112.30660 | 6722 ft | 286 kts | 103° |
| 2026-05-08 18:20 | 23.10369 | 112.32737 | 6583 ft | 285 kts | 103° |
| 2026-05-08 18:20 | 23.09922 | 112.34862 | 6442 ft | 284 kts | 103° |
| 2026-05-08 18:20 | 23.09487 | 112.36925 | 6295 ft | 283 kts | 103° |
| 2026-05-08 18:21 | 23.09049 | 112.39004 | 6153 ft | 282 kts | 103° |
| 2026-05-08 18:21 | 23.08613 | 112.41072 | 6001 ft | 280 kts | 103° |
| 2026-05-08 18:21 | 23.08179 | 112.43131 | 5850 ft | 279 kts | 103° |
| 2026-05-08 18:21 | 23.07747 | 112.45178 | 5707 ft | 277 kts | 103° |
| 2026-05-08 18:22 | 23.07319 | 112.47204 | 5549 ft | 275 kts | 103° |
| 2026-05-08 18:22 | 23.06944 | 112.49233 | 5403 ft | 273 kts | 96° |
| 2026-05-08 18:22 | 23.06870 | 112.51284 | 5263 ft | 271 kts | 90° |
| 2026-05-08 18:22 | 23.06897 | 112.53324 | 5116 ft | 269 kts | 89° |
| 2026-05-08 18:23 | 23.06933 | 112.55353 | 4974 ft | 268 kts | 89° |
| 2026-05-08 18:23 | 23.06960 | 112.57375 | 4832 ft | 267 kts | 89° |
| 2026-05-08 18:23 | 23.06975 | 112.59385 | 4673 ft | 265 kts | 89° |
| 2026-05-08 18:23 | 23.06982 | 112.61384 | 4522 ft | 264 kts | 89° |
| 2026-05-08 18:24 | 23.06985 | 112.63375 | 4402 ft | 263 kts | 89° |
| 2026-05-08 18:24 | 23.06985 | 112.65361 | 4299 ft | 261 kts | 89° |
| 2026-05-08 18:24 | 23.06984 | 112.67322 | 4218 ft | 258 kts | 89° |
| 2026-05-08 18:24 | 23.06981 | 112.69269 | 4144 ft | 258 kts | 89° |
| 2026-05-08 18:25 | 23.06978 | 112.71219 | 4058 ft | 260 kts | 89° |
| 2026-05-08 18:25 | 23.06973 | 112.73196 | 3967 ft | 263 kts | 89° |
| 2026-05-08 18:25 | 23.06960 | 112.75184 | 3870 ft | 263 kts | 89° |
| 2026-05-08 18:25 | 23.06944 | 112.77171 | 3775 ft | 263 kts | 89° |
| 2026-05-08 18:26 | 23.06928 | 112.79159 | 3680 ft | 263 kts | 89° |
| 2026-05-08 18:26 | 23.06912 | 112.81145 | 3579 ft | 263 kts | 89° |
| 2026-05-08 18:26 | 23.06895 | 112.83119 | 3479 ft | 260 kts | 89° |
| 2026-05-08 18:26 | 23.06879 | 112.85045 | 3379 ft | 256 kts | 89° |
| 2026-05-08 18:27 | 23.06863 | 112.86971 | 3290 ft | 255 kts | 89° |
| 2026-05-08 18:27 | 23.06852 | 112.88276 | 3221 ft | 255 kts | 89° |
| 2026-05-08 18:27 | 23.06830 | 112.90829 | 3083 ft | 256 kts | 89° |
| 2026-05-08 18:27 | 23.06813 | 112.92757 | 2993 ft | 256 kts | 89° |
| 2026-05-08 18:28 | 23.06795 | 112.94689 | 2886 ft | 255 kts | 89° |
| 2026-05-08 18:28 | 23.06778 | 112.96608 | 2785 ft | 253 kts | 88° |
| 2026-05-08 18:28 | 23.06760 | 112.98521 | 2690 ft | 254 kts | 89° |
| 2026-05-08 18:28 | 23.06743 | 113.00431 | 2611 ft | 252 kts | 89° |
| 2026-05-08 18:29 | 23.06725 | 113.02336 | 2505 ft | 252 kts | 88° |
| 2026-05-08 18:29 | 23.06707 | 113.04246 | 2404 ft | 253 kts | 88° |
| 2026-05-08 18:29 | 23.06689 | 113.06154 | 2306 ft | 253 kts | 88° |
| 2026-05-08 18:29 | 23.06662 | 113.08072 | 2205 ft | 254 kts | 91° |
| 2026-05-08 18:30 | 23.06346 | 113.09963 | 2092 ft | 253 kts | 102° |
| 2026-05-08 18:30 | 23.05904 | 113.11725 | 1993 ft | 231 kts | 102° |
| 2026-05-08 18:30 | 23.05497 | 113.13339 | 1969 ft | 213 kts | 102° |
| 2026-05-08 18:30 | 23.05126 | 113.14856 | 1998 ft | 206 kts | 102° |
| 2026-05-08 18:31 | 23.04884 | 113.16383 | 1976 ft | 203 kts | 83° |
| 2026-05-08 18:31 | 23.05245 | 113.17790 | 1980 ft | 187 kts | 62° |
| 2026-05-08 18:31 | 23.05967 | 113.18909 | 1995 ft | 178 kts | 46° |
| 2026-05-08 18:31 | 23.06978 | 113.19644 | 1996 ft | 178 kts | 21° |
| 2026-05-08 18:32 | 23.08158 | 113.20104 | 1990 ft | 180 kts | 21° |
| 2026-05-08 18:32 | 23.09336 | 113.20533 | 1997 ft | 181 kts | 19° |
| 2026-05-08 18:32 | 23.10547 | 113.20918 | 1990 ft | 182 kts | 17° |
| 2026-05-08 18:32 | 23.11769 | 113.21276 | 1981 ft | 182 kts | 16° |
| 2026-05-08 18:33 | 23.12966 | 113.21613 | 1969 ft | 170 kts | 16° |
| 2026-05-08 18:33 | 23.14081 | 113.21920 | 1980 ft | 164 kts | 16° |
| 2026-05-08 18:33 | 23.15209 | 113.22229 | 2007 ft | 169 kts | 16° |
| 2026-05-08 18:33 | 23.16359 | 113.22542 | 1997 ft | 171 kts | 16° |
| 2026-05-08 18:34 | 23.17512 | 113.22856 | 1994 ft | 171 kts | 16° |
| 2026-05-08 18:34 | 23.18662 | 113.23169 | 1993 ft | 170 kts | 15° |
| 2026-05-08 18:34 | 23.19783 | 113.23474 | 1965 ft | 167 kts | 15° |
| 2026-05-08 18:34 | 23.20907 | 113.23779 | 1936 ft | 166 kts | 15° |
| 2026-05-08 18:35 | 23.22033 | 113.24086 | 1910 ft | 166 kts | 15° |
| 2026-05-08 18:35 | 23.23153 | 113.24390 | 1866 ft | 165 kts | 15° |
| 2026-05-08 18:35 | 23.24269 | 113.24693 | 1847 ft | 166 kts | 16° |
| 2026-05-08 18:35 | 23.25394 | 113.24999 | 1835 ft | 166 kts | 15° |
| 2026-05-08 18:36 | 23.26516 | 113.25304 | 1807 ft | 165 kts | 15° |
| 2026-05-08 18:36 | 23.27625 | 113.25606 | 1796 ft | 164 kts | 15° |
| 2026-05-08 18:36 | 23.28732 | 113.25906 | 1762 ft | 164 kts | 16° |
| 2026-05-08 18:36 | 23.29849 | 113.26210 | 1606 ft | 165 kts | 16° |
| 2026-05-08 18:37 | 23.30922 | 113.26502 | 1388 ft | 156 kts | 15° |
| 2026-05-08 18:37 | 23.31937 | 113.26778 | 1189 ft | 145 kts | 15° |
| 2026-05-08 18:37 | 23.32884 | 113.27035 | 1035 ft | 136 kts | 14° |
| 2026-05-08 18:37 | 23.33783 | 113.27280 | 868 ft | 132 kts | 14° |
| 2026-05-08 18:38 | 23.34683 | 113.27520 | 696 ft | 134 kts | 12° |
| 2026-05-08 18:38 | 23.35581 | 113.27757 | 637 ft | 134 kts | 13° |
| 2026-05-08 18:38 | 23.36497 | 113.28021 | 403 ft | 138 kts | 14° |
| 2026-05-08 18:38 | 23.37415 | 113.28283 | 206 ft | 133 kts | 12° |
| 2026-05-08 18:39 | 23.38302 | 113.28524 | 55 ft | 125 kts | 14° |
| 2026-05-08 18:39 | 23.38980 | 113.28695 | 52 ft | 71 kts | 14° |
| 2026-05-08 18:39 | 23.39190 | 113.28751 | 51 ft | 19 kts | 15° |
| 2026-05-08 18:39 | 23.39316 | 113.28795 | 53 ft | 19 kts | 24° |
| 2026-05-08 18:40 | 23.39423 | 113.28871 | 52 ft | 18 kts | 38° |
| 2026-05-08 18:40 | 23.39517 | 113.28959 | 52 ft | 18 kts | 47° |
| 2026-05-08 18:40 | 23.39608 | 113.29040 | 52 ft | 17 kts | 38° |
| 2026-05-08 18:40 | 23.39706 | 113.29086 | 50 ft | 14 kts | 15° |
| 2026-05-08 18:41 | 23.39798 | 113.29110 | 51 ft | 13 kts | 11° |
| 2026-05-08 18:41 | 23.39856 | 113.29122 | 52 ft | 0 kts | 22° |
| 2026-05-08 18:42 | 23.39856 | 113.29123 | 52 ft | 0 kts | 26° |
| 2026-05-08 18:42 | 23.39856 | 113.29124 | 52 ft | 0 kts | 46° |
| 2026-05-08 18:42 | 23.39856 | 113.29126 | 52 ft | 0 kts | 59° |
| 2026-05-08 18:43 | 23.39856 | 113.29127 | 52 ft | 0 kts | 79° |
| 2026-05-08 18:43 | 23.39855 | 113.29139 | 52 ft | 3 kts | 95° |
| 2026-05-08 18:43 | 23.39849 | 113.29178 | 52 ft | 7 kts | 101° |
| 2026-05-08 18:43 | 23.39836 | 113.29238 | 52 ft | 8 kts | 104° |
| 2026-05-08 18:44 | 23.39792 | 113.29284 | 52 ft | 11 kts | 173° |
| 2026-05-08 18:44 | 23.39711 | 113.29271 | 51 ft | 13 kts | 192° |
| 2026-05-08 18:44 | 23.39636 | 113.29301 | 49 ft | 6 kts | 112° |
| 2026-05-08 18:44 | 23.39635 | 113.29330 | 52 ft | 0 kts | 99° |